Time;durP1;ratioP1;P1;durP2;ratioP2;P2;SDS_P1;SDS_P2;PMS_P1;PMS_P2;Temp;Humidity;BMP_temperature;BMP_pressure;BME280_temperature;BME280_humidity;BME280_pressure;Samples;Min_cycle;Max_cycle;Signal;HPM_P1;HPM_P2
2021/12/02 00:01:44;;;;;;;0.30;0.10;;;7.50;99.90;;;;;;5065759;28;20501;-91
2021/12/02 00:04:11;;;;;;;0.30;0.20;;;7.60;99.90;;;;;;5066044;28;20966;-88
2021/12/02 00:06:39;;;;;;;0.30;0.10;;;7.60;99.90;;;;;;5061021;28;20486;-88
2021/12/02 00:09:07;;;;;;;0.30;0.10;;;7.60;99.90;;;;;;5067845;28;20467;-88
2021/12/02 00:11:34;;;;;;;0.40;0.20;;;7.60;99.90;;;;;;5066742;28;20470;-88
2021/12/02 00:14:07;;;;;;;0.30;0.10;;;7.60;99.90;;;;;;5068631;28;20828;-89
2021/12/02 00:16:38;;;;;;;0.30;0.20;;;7.50;99.90;;;;;;5069458;28;20471;-89
2021/12/02 00:21:53;;;;;;;0.30;0.10;;;7.50;99.90;;;;;;5067930;28;20665;-88
2021/12/02 00:24:24;;;;;;;0.30;0.10;;;7.50;99.90;;;;;;5068656;28;20485;-88
2021/12/02 00:26:53;;;;;;;0.40;0.30;;;7.40;99.90;;;;;;5066365;28;20563;-90
2021/12/02 00:29:22;;;;;;;0.30;0.10;;;7.30;99.90;;;;;;5064376;28;20803;-88
2021/12/02 00:31:51;;;;;;;0.30;0.20;;;7.30;99.90;;;;;;5059284;28;20988;-88
2021/12/02 00:34:19;;;;;;;0.30;0.10;;;7.20;99.90;;;;;;5069099;28;20443;-90
2021/12/02 00:36:46;;;;;;;0.30;0.10;;;7.20;99.90;;;;;;5066659;28;20451;-89
2021/12/02 00:39:14;;;;;;;0.30;0.10;;;7.20;99.90;;;;;;5061259;28;20458;-90
2021/12/02 00:41:44;;;;;;;0.30;0.10;;;7.20;99.90;;;;;;5066330;28;20460;-88
2021/12/02 00:44:11;;;;;;;0.30;0.10;;;7.10;99.90;;;;;;5071675;28;20498;-89
2021/12/02 00:46:39;;;;;;;0.30;0.20;;;7.10;99.90;;;;;;5072276;28;20458;-88
2021/12/02 00:49:16;;;;;;;0.30;0.10;;;7.10;99.90;;;;;;5070152;28;20445;-87
2021/12/02 00:51:46;;;;;;;0.30;0.10;;;7.00;99.90;;;;;;5095570;28;20449;-88
2021/12/02 00:54:14;;;;;;;0.30;0.10;;;7.10;99.90;;;;;;5085341;28;20420;-87
2021/12/02 00:56:43;;;;;;;0.30;0.10;;;7.10;99.90;;;;;;5072083;28;20466;-89
2021/12/02 00:59:10;;;;;;;0.30;0.10;;;7.10;99.90;;;;;;5072784;28;20450;-88
2021/12/02 01:01:38;;;;;;;0.30;0.10;;;7.20;99.90;;;;;;5067015;28;20463;-87
2021/12/02 01:04:07;;;;;;;0.30;0.10;;;7.20;99.90;;;;;;5067807;28;20969;-87
2021/12/02 01:06:35;;;;;;;0.30;0.10;;;7.10;99.90;;;;;;5063972;28;20438;-88
2021/12/02 01:09:02;;;;;;;0.30;0.10;;;7.10;99.90;;;;;;5071265;28;20478;-87
2021/12/02 01:11:28;;;;;;;0.30;0.10;;;7.00;99.90;;;;;;5068740;28;20460;-89
2021/12/02 01:13:57;;;;;;;0.30;0.10;;;7.10;99.90;;;;;;5066891;28;20911;-88
2021/12/02 01:16:25;;;;;;;0.30;0.20;;;7.10;99.90;;;;;;5070462;28;20500;-87
2021/12/02 01:18:52;;;;;;;0.30;0.10;;;7.00;99.90;;;;;;5059815;28;20487;-89
2021/12/02 01:21:22;;;;;;;0.30;0.10;;;7.00;99.90;;;;;;5069626;28;20443;-87
2021/12/02 01:23:51;;;;;;;0.30;0.10;;;7.00;99.90;;;;;;5070045;28;20533;-89
2021/12/02 01:26:19;;;;;;;0.30;0.20;;;7.00;99.90;;;;;;5071989;28;20474;-87
2021/12/02 01:28:47;;;;;;;0.30;0.10;;;7.00;99.90;;;;;;5071058;28;20879;-84
2021/12/02 01:31:15;;;;;;;0.30;0.20;;;7.00;99.90;;;;;;5054784;28;20502;-87
2021/12/02 01:33:46;;;;;;;0.30;0.20;;;7.00;99.90;;;;;;5055802;28;20442;-87
2021/12/02 01:36:14;;;;;;;0.30;0.10;;;7.00;99.90;;;;;;5067005;28;20481;-89
2021/12/02 01:38:41;;;;;;;0.30;0.10;;;7.10;99.90;;;;;;5071714;28;20934;-89
2021/12/02 01:41:08;;;;;;;0.30;0.10;;;7.10;99.90;;;;;;5071701;28;20448;-88
2021/12/02 01:43:49;;;;;;;0.30;0.10;;;7.00;99.90;;;;;;5068889;28;20555;-87
2021/12/02 01:46:19;;;;;;;0.30;0.10;;;7.00;99.90;;;;;;5073239;28;20462;-89
2021/12/02 01:48:58;;;;;;;0.30;0.10;;;7.00;99.90;;;;;;5095740;28;20431;-87
2021/12/02 01:51:27;;;;;;;0.30;0.10;;;7.00;99.90;;;;;;5085299;28;20437;-87
2021/12/02 01:54:02;;;;;;;0.30;0.10;;;7.00;99.90;;;;;;5063302;28;20942;-87
2021/12/02 01:56:32;;;;;;;0.30;0.10;;;7.00;99.90;;;;;;5066320;28;20447;-87
2021/12/02 01:59:09;;;;;;;0.40;0.20;;;7.00;99.90;;;;;;5067813;28;20446;-87
2021/12/02 02:01:41;;;;;;;0.30;0.20;;;7.00;99.90;;;;;;5069728;28;20949;-88
2021/12/02 02:04:09;;;;;;;0.30;0.10;;;7.00;99.90;;;;;;5068491;28;20487;-89
2021/12/02 02:06:39;;;;;;;0.30;0.10;;;7.00;99.90;;;;;;5066230;28;20441;-85
2021/12/02 02:09:08;;;;;;;0.30;0.20;;;6.90;99.90;;;;;;5070975;28;20448;-88
2021/12/02 02:11:36;;;;;;;0.30;0.10;;;6.90;99.90;;;;;;5070136;28;20465;-88
2021/12/02 02:14:05;;;;;;;0.30;0.17;;;6.90;99.90;;;;;;5070372;28;20452;-89
2021/12/02 02:16:33;;;;;;;0.30;0.10;;;7.00;99.90;;;;;;5072586;28;20519;-88
2021/12/02 02:19:01;;;;;;;0.30;0.20;;;6.90;99.90;;;;;;5065959;28;20442;-88
2021/12/02 02:21:34;;;;;;;0.30;0.10;;;7.00;99.90;;;;;;5069019;28;20546;-87
2021/12/02 02:24:01;;;;;;;0.30;0.10;;;7.00;99.90;;;;;;5068104;28;20535;-88
2021/12/02 02:26:33;;;;;;;0.30;0.10;;;7.00;99.90;;;;;;5057749;28;20483;-89
2021/12/02 02:29:00;;;;;;;0.30;0.20;;;6.90;99.90;;;;;;5052197;28;20458;-89
2021/12/02 02:31:29;;;;;;;0.30;0.10;;;6.90;99.90;;;;;;5066257;28;20447;-89
2021/12/02 02:33:58;;;;;;;0.30;0.10;;;6.90;99.90;;;;;;5066893;28;20451;-88
2021/12/02 02:36:28;;;;;;;0.30;0.10;;;6.80;99.90;;;;;;5066590;28;20433;-87
2021/12/02 02:38:56;;;;;;;0.30;0.10;;;6.80;99.90;;;;;;5063853;28;20513;-89
2021/12/02 02:41:25;;;;;;;0.30;0.10;;;6.90;99.90;;;;;;5068521;28;20477;-87
2021/12/02 02:43:56;;;;;;;0.30;0.10;;;6.90;99.90;;;;;;5073887;28;20458;-87
2021/12/02 02:46:28;;;;;;;0.30;0.10;;;6.80;99.90;;;;;;5090949;28;20473;-87
2021/12/02 02:48:56;;;;;;;0.30;0.10;;;6.90;99.90;;;;;;5074743;28;20451;-88
2021/12/02 02:51:24;;;;;;;0.30;0.10;;;6.90;99.90;;;;;;5069745;28;20437;-88
2021/12/02 02:53:53;;;;;;;0.30;0.10;;;6.90;99.90;;;;;;5067493;28;20493;-88
2021/12/02 02:56:24;;;;;;;0.30;0.10;;;6.80;99.90;;;;;;5063030;28;20783;-89
2021/12/02 02:59:00;;;;;;;0.30;0.10;;;6.80;99.90;;;;;;5064178;28;20433;-87
2021/12/02 03:01:38;;;;;;;0.30;0.20;;;6.80;99.90;;;;;;5070105;28;21019;-88
2021/12/02 03:04:20;;;;;;;0.30;0.20;;;6.90;99.90;;;;;;5069471;28;20569;-87
2021/12/02 03:06:52;;;;;;;0.30;0.10;;;6.80;99.90;;;;;;5068680;28;20440;-88
2021/12/02 03:09:26;;;;;;;0.30;0.10;;;6.80;99.90;;;;;;5069068;28;20462;-88
2021/12/02 03:11:58;;;;;;;0.30;0.10;;;6.80;99.90;;;;;;5069967;28;20457;-87
2021/12/02 03:14:32;;;;;;;0.30;0.10;;;6.70;99.90;;;;;;5069300;28;20459;-87
2021/12/02 03:16:58;;;;;;;0.30;0.10;;;6.70;99.90;;;;;;5073092;28;20472;-89
2021/12/02 03:19:28;;;;;;;0.30;0.10;;;6.60;99.90;;;;;;5068915;28;20463;-87
2021/12/02 03:21:57;;;;;;;0.30;0.10;;;6.60;99.90;;;;;;5069555;28;20448;-87
2021/12/02 03:24:25;;;;;;;0.30;0.20;;;6.50;99.90;;;;;;5069058;28;20483;-87
2021/12/02 03:26:54;;;;;;;0.30;0.10;;;6.50;99.90;;;;;;5066974;28;20491;-88
2021/12/02 03:29:21;;;;;;;0.30;0.10;;;6.50;99.90;;;;;;5069678;28;20443;-87
2021/12/02 03:31:48;;;;;;;0.30;0.10;;;6.60;99.90;;;;;;5068180;28;20940;-89
2021/12/02 03:34:16;;;;;;;0.30;0.10;;;6.60;99.90;;;;;;5066302;28;20950;-88
2021/12/02 03:36:43;;;;;;;0.30;0.17;;;6.60;99.90;;;;;;5070221;28;20505;-88
2021/12/02 03:39:11;;;;;;;0.30;0.10;;;6.60;99.90;;;;;;5067696;28;20443;-87
2021/12/02 03:41:39;;;;;;;0.30;0.10;;;6.60;99.90;;;;;;5073140;28;20477;-88
2021/12/02 03:44:08;;;;;;;0.30;0.10;;;6.50;99.90;;;;;;5090067;28;20576;-87
2021/12/02 03:46:37;;;;;;;0.30;0.10;;;6.40;99.90;;;;;;5078580;28;20436;-88
2021/12/02 03:49:04;;;;;;;0.30;0.10;;;6.40;99.90;;;;;;5062289;28;20811;-88
2021/12/02 03:51:31;;;;;;;0.30;0.10;;;6.40;99.90;;;;;;5070805;28;20500;-88
2021/12/02 03:53:59;;;;;;;0.30;0.10;;;6.30;99.90;;;;;;5067020;28;20444;-87
2021/12/02 03:56:27;;;;;;;0.30;0.10;;;6.30;99.90;;;;;;5069608;28;20873;-88
2021/12/02 03:58:54;;;;;;;0.30;0.10;;;6.30;99.90;;;;;;5069630;28;20803;-87
2021/12/02 04:01:23;;;;;;;0.30;0.10;;;6.30;99.90;;;;;;5069402;28;20448;-88
2021/12/02 04:03:51;;;;;;;0.63;0.63;;;6.30;99.90;;;;;;5068353;28;21009;-87
2021/12/02 04:06:19;;;;;;;0.30;0.10;;;6.40;99.90;;;;;;5066455;28;20797;-88
2021/12/02 04:08:49;;;;;;;0.30;0.10;;;6.50;99.90;;;;;;5065449;28;20465;-88
2021/12/02 04:11:23;;;;;;;0.30;0.10;;;6.60;99.90;;;;;;5053022;28;20968;-87
2021/12/02 04:14:03;;;;;;;0.30;0.10;;;6.50;99.90;;;;;;5049590;28;20453;-87
2021/12/02 04:16:35;;;;;;;0.30;0.10;;;6.50;99.90;;;;;;5071983;28;20475;-87
2021/12/02 04:19:02;;;;;;;0.30;0.20;;;6.50;99.90;;;;;;5072846;28;20953;-87
2021/12/02 04:21:29;;;;;;;0.30;0.10;;;6.50;99.90;;;;;;5071601;28;20498;-87
2021/12/02 04:23:56;;;;;;;0.30;0.10;;;6.50;99.90;;;;;;5072458;28;20452;-88
2021/12/02 04:26:24;;;;;;;0.30;0.20;;;6.50;99.90;;;;;;5069042;28;20960;-87
2021/12/02 04:28:51;;;;;;;0.30;0.10;;;6.50;99.90;;;;;;5064046;28;20465;-87
2021/12/02 04:31:18;;;;;;;0.30;0.10;;;6.50;99.90;;;;;;5061680;28;20502;-88
2021/12/02 04:33:47;;;;;;;1.03;0.93;;;6.50;99.90;;;;;;5053124;28;20499;-88
2021/12/02 04:36:14;;;;;;;0.30;0.13;;;6.40;99.90;;;;;;5066193;28;20509;-89
2021/12/02 04:38:41;;;;;;;0.30;0.10;;;6.40;99.90;;;;;;5080515;28;20484;-88
2021/12/02 04:41:08;;;;;;;0.30;0.10;;;6.40;99.90;;;;;;5090199;28;20976;-87
2021/12/02 04:43:35;;;;;;;0.30;0.10;;;6.50;99.90;;;;;;5076009;28;20581;-89
2021/12/02 04:46:02;;;;;;;0.30;0.10;;;6.50;99.90;;;;;;5073652;28;20488;-86
2021/12/02 04:48:29;;;;;;;0.30;0.13;;;6.50;99.90;;;;;;5068304;28;20455;-87
2021/12/02 04:50:57;;;;;;;0.30;0.10;;;6.50;99.90;;;;;;5063994;28;20437;-87
2021/12/02 04:53:24;;;;;;;0.30;0.10;;;6.50;99.90;;;;;;5068645;28;20443;-88
2021/12/02 04:55:51;;;;;;;0.30;0.20;;;6.50;99.90;;;;;;5072522;28;20460;-90
2021/12/02 04:58:20;;;;;;;0.30;0.10;;;6.50;99.90;;;;;;5068769;28;20512;-90
2021/12/02 05:00:50;;;;;;;0.30;0.10;;;6.50;99.90;;;;;;5061702;28;20440;-92
2021/12/02 05:03:17;;;;;;;0.30;0.10;;;6.60;99.90;;;;;;5065396;28;20446;-91
2021/12/02 05:05:44;;;;;;;0.30;0.10;;;6.60;99.90;;;;;;5068245;28;20481;-91
2021/12/02 05:08:12;;;;;;;0.30;0.10;;;6.60;99.90;;;;;;5072066;28;20533;-91
2021/12/02 05:10:40;;;;;;;0.30;0.10;;;6.60;99.90;;;;;;5070188;28;20939;-90
2021/12/02 05:13:07;;;;;;;0.30;0.10;;;6.50;99.90;;;;;;5061039;28;20518;-91
2021/12/02 05:15:34;;;;;;;0.30;0.17;;;6.40;99.90;;;;;;5057132;28;20510;-90
2021/12/02 05:18:01;;;;;;;0.30;0.10;;;6.50;99.90;;;;;;5071247;28;20533;-90
2021/12/02 05:20:28;;;;;;;0.30;0.10;;;6.50;99.90;;;;;;5068289;28;20506;-91
2021/12/02 05:22:55;;;;;;;0.40;0.30;;;6.50;99.90;;;;;;5068768;28;20532;-88
2021/12/02 05:25:24;;;;;;;0.30;0.20;;;6.60;99.90;;;;;;5067928;28;20495;-89
2021/12/02 05:27:51;;;;;;;0.30;0.10;;;6.60;99.90;;;;;;5067544;28;20450;-88
2021/12/02 05:30:18;;;;;;;0.30;0.10;;;6.60;99.90;;;;;;5070626;28;20444;-89
2021/12/02 05:32:45;;;;;;;0.30;0.10;;;6.60;99.90;;;;;;5064364;28;20444;-86
2021/12/02 05:35:12;;;;;;;0.30;0.10;;;6.50;99.90;;;;;;5056853;28;20504;-87
2021/12/02 05:37:39;;;;;;;0.30;0.20;;;6.50;99.90;;;;;;5087212;28;20449;-88
2021/12/02 05:40:07;;;;;;;0.30;0.10;;;6.40;99.90;;;;;;5086925;28;20444;-88
2021/12/02 05:42:37;;;;;;;0.30;0.20;;;6.30;99.90;;;;;;5070342;28;20504;-88
2021/12/02 05:45:04;;;;;;;0.37;0.17;;;6.30;99.90;;;;;;5070347;28;20989;-89
2021/12/02 05:47:31;;;;;;;0.30;0.20;;;6.20;99.90;;;;;;5065783;28;20457;-88
2021/12/02 05:49:58;;;;;;;0.30;0.10;;;6.10;99.90;;;;;;5071809;28;20466;-88
2021/12/02 05:52:25;;;;;;;0.30;0.10;;;6.10;99.90;;;;;;5071239;28;20505;-88
2021/12/02 05:54:52;;;;;;;0.30;0.10;;;6.10;99.90;;;;;;5071316;28;20516;-89
2021/12/02 05:57:20;;;;;;;0.30;0.10;;;6.10;99.90;;;;;;5071793;28;20432;-88
2021/12/02 05:59:48;;;;;;;0.30;0.20;;;6.10;99.90;;;;;;5069149;28;20452;-88
2021/12/02 06:02:15;;;;;;;0.30;0.10;;;6.00;99.90;;;;;;5068127;28;20452;-88
2021/12/02 06:04:43;;;;;;;0.30;0.10;;;6.00;99.90;;;;;;5071505;28;20542;-88
2021/12/02 06:07:11;;;;;;;0.30;0.10;;;6.00;99.90;;;;;;5066146;28;20453;-87
2021/12/02 06:09:38;;;;;;;0.30;0.10;;;6.00;99.90;;;;;;5066262;28;20453;-86
2021/12/02 06:12:05;;;;;;;0.30;0.10;;;6.10;99.90;;;;;;5069102;28;20934;-87
2021/12/02 06:14:32;;;;;;;0.30;0.10;;;6.10;99.90;;;;;;5070389;28;20444;-87
2021/12/02 06:17:01;;;;;;;0.30;0.10;;;6.10;99.90;;;;;;5071500;28;20444;-87
2021/12/02 06:19:28;;;;;;;0.30;0.10;;;6.10;99.90;;;;;;5070532;28;20459;-88
2021/12/02 06:21:55;;;;;;;0.30;0.10;;;6.10;99.90;;;;;;5069857;28;20945;-87
2021/12/02 06:24:29;;;;;;;0.30;0.10;;;6.00;99.90;;;;;;5071574;28;20444;-88
2021/12/02 06:26:56;;;;;;;0.30;0.10;;;6.00;99.90;;;;;;5071860;28;20557;-88
2021/12/02 06:29:23;;;;;;;0.30;0.20;;;6.00;99.90;;;;;;5071294;28;20525;-87
2021/12/02 06:31:50;;;;;;;0.30;0.10;;;5.90;99.90;;;;;;5070082;28;20468;-88
2021/12/02 06:34:19;;;;;;;0.30;0.10;;;6.00;99.90;;;;;;5074979;28;20494;-87
2021/12/02 06:36:46;;;;;;;0.30;0.10;;;5.90;99.90;;;;;;5068012;28;20473;-90
2021/12/02 06:39:13;;;;;;;0.30;0.10;;;5.90;99.90;;;;;;5067800;28;20503;-87
2021/12/02 06:41:39;;;;;;;0.30;0.10;;;5.90;99.90;;;;;;5068947;28;20462;-87
2021/12/02 06:44:07;;;;;;;0.30;0.10;;;5.90;99.90;;;;;;5066618;28;20448;-88
2021/12/02 06:46:34;;;;;;;0.30;0.10;;;5.90;99.90;;;;;;5069943;28;20541;-87
2021/12/02 06:49:01;;;;;;;0.30;0.10;;;5.80;99.90;;;;;;5070803;28;20442;-90
2021/12/02 06:51:29;;;;;;;0.30;0.20;;;5.80;99.90;;;;;;5069996;28;20460;-88
2021/12/02 06:53:56;;;;;;;0.30;0.10;;;5.80;99.90;;;;;;5070414;28;20444;-87
2021/12/02 06:56:23;;;;;;;0.30;0.10;;;5.80;99.90;;;;;;5070523;28;20432;-87
2021/12/02 06:58:50;;;;;;;0.30;0.10;;;5.90;99.90;;;;;;5070746;28;20448;-86
2021/12/02 07:01:17;;;;;;;0.30;0.10;;;5.90;99.90;;;;;;5069872;28;20524;-90
2021/12/02 07:03:44;;;;;;;0.30;0.10;;;5.90;99.90;;;;;;5070020;28;20456;-88
2021/12/02 07:06:11;;;;;;;0.30;0.10;;;5.90;99.90;;;;;;5070500;28;20484;-88
2021/12/02 07:08:40;;;;;;;0.30;0.10;;;6.00;99.90;;;;;;5070077;28;20490;-89
2021/12/02 07:11:08;;;;;;;0.30;0.10;;;6.00;99.90;;;;;;5069844;28;20831;-89
2021/12/02 07:13:37;;;;;;;0.30;0.10;;;6.00;99.90;;;;;;5070369;28;20440;-86
2021/12/02 07:16:05;;;;;;;0.30;0.10;;;5.90;99.90;;;;;;5069914;28;20487;-88
2021/12/02 07:18:36;;;;;;;0.30;0.10;;;5.90;99.90;;;;;;5067527;28;20514;-87
2021/12/02 07:21:04;;;;;;;0.30;0.10;;;5.90;99.90;;;;;;5068828;28;20472;-88
2021/12/02 07:23:31;;;;;;;0.30;0.10;;;5.80;99.90;;;;;;5061952;28;20833;-87
2021/12/02 07:26:00;;;;;;;0.30;0.10;;;5.80;99.90;;;;;;5070468;28;20546;-88
2021/12/02 07:28:27;;;;;;;0.30;0.10;;;5.80;99.90;;;;;;5070234;28;20462;-88
2021/12/02 07:30:55;;;;;;;0.30;0.10;;;5.70;99.90;;;;;;5081824;28;20486;-89
2021/12/02 07:33:23;;;;;;;0.30;0.20;;;5.70;99.90;;;;;;5087066;28;20457;-86
2021/12/02 07:35:50;;;;;;;0.30;0.10;;;5.70;99.90;;;;;;5076046;28;20459;-89
2021/12/02 07:38:18;;;;;;;0.30;0.10;;;5.70;99.90;;;;;;5066747;28;20460;-86
2021/12/02 07:40:45;;;;;;;0.30;0.20;;;5.70;99.90;;;;;;5060430;28;20817;-86
2021/12/02 07:43:13;;;;;;;0.30;0.10;;;5.70;99.90;;;;;;5065372;28;20459;-88
2021/12/02 07:45:40;;;;;;;0.30;0.10;;;5.60;99.90;;;;;;5069101;28;20492;-89
2021/12/02 07:48:09;;;;;;;0.30;0.10;;;5.70;99.90;;;;;;5067740;28;20811;-88
2021/12/02 07:50:37;;;;;;;0.30;0.10;;;5.70;99.90;;;;;;5068828;28;20432;-90
2021/12/02 07:53:06;;;;;;;0.30;0.10;;;5.70;99.90;;;;;;5067397;28;20938;-91
2021/12/02 07:55:36;;;;;;;0.30;0.10;;;5.70;99.90;;;;;;5069822;28;20463;-87
2021/12/02 07:58:06;;;;;;;0.30;0.10;;;5.70;99.90;;;;;;5068292;28;20467;-88
2021/12/02 08:00:35;;;;;;;0.30;0.10;;;5.70;99.90;;;;;;5068505;28;20457;-88
2021/12/02 08:03:07;;;;;;;0.30;0.13;;;5.80;99.90;;;;;;5067896;28;20513;-88
2021/12/02 08:05:34;;;;;;;0.30;0.10;;;5.70;99.90;;;;;;5068463;28;20476;-89
2021/12/02 08:08:01;;;;;;;0.30;0.10;;;5.70;99.90;;;;;;5057619;28;20530;-87
2021/12/02 08:10:29;;;;;;;0.30;0.20;;;5.60;99.90;;;;;;5066588;28;20452;-87
2021/12/02 08:12:57;;;;;;;0.30;0.10;;;5.60;99.90;;;;;;5066248;28;20547;-87
2021/12/02 08:15:26;;;;;;;0.30;0.10;;;5.70;99.90;;;;;;5069001;28;20493;-88
2021/12/02 08:17:56;;;;;;;0.30;0.10;;;5.70;99.90;;;;;;5063937;28;20442;-88
2021/12/02 08:20:25;;;;;;;0.30;0.10;;;5.90;99.90;;;;;;5066208;28;20543;-88
2021/12/02 08:22:53;;;;;;;0.30;0.20;;;5.80;99.90;;;;;;5064928;28;20792;-89
2021/12/02 08:25:22;;;;;;;0.30;0.10;;;5.80;99.90;;;;;;5065374;28;20443;-88
2021/12/02 08:27:50;;;;;;;0.30;0.10;;;5.80;99.90;;;;;;5061888;28;20522;-88
2021/12/02 08:30:19;;;;;;;0.30;0.10;;;5.70;99.90;;;;;;5077138;28;20576;-88
2021/12/02 08:32:46;;;;;;;0.30;0.10;;;5.60;99.90;;;;;;5070821;28;20530;-88
2021/12/02 08:35:15;;;;;;;0.30;0.10;;;5.60;99.90;;;;;;5069812;28;20822;-87
2021/12/02 08:37:45;;;;;;;0.30;0.20;;;5.60;99.90;;;;;;5069434;28;20444;-88
2021/12/02 08:40:15;;;;;;;0.30;0.10;;;5.60;99.90;;;;;;5068432;28;20546;-88
2021/12/02 08:42:42;;;;;;;0.30;0.20;;;5.70;99.90;;;;;;5049348;28;20946;-89
2021/12/02 08:45:10;;;;;;;0.97;0.93;;;5.60;99.90;;;;;;5062799;28;20459;-88
2021/12/02 08:47:43;;;;;;;0.30;0.20;;;5.60;99.90;;;;;;5056289;28;20484;-88
2021/12/02 08:50:11;;;;;;;0.30;0.10;;;5.60;99.90;;;;;;5069387;28;20453;-88
2021/12/02 08:52:39;;;;;;;0.30;0.20;;;5.60;99.90;;;;;;5051048;28;20495;-88
2021/12/02 08:55:07;;;;;;;0.57;0.57;;;5.60;99.90;;;;;;5048476;28;20502;-88
2021/12/02 08:57:35;;;;;;;0.40;0.33;;;5.50;99.90;;;;;;5062482;28;20452;-88
2021/12/02 09:00:05;;;;;;;0.30;0.10;;;5.60;99.90;;;;;;5066246;28;20443;-88
2021/12/02 09:02:32;;;;;;;1.83;1.80;;;5.50;99.90;;;;;;5065155;28;20437;-88
2021/12/02 09:04:59;;;;;;;1.37;1.27;;;5.60;99.90;;;;;;5069293;28;20526;-88
2021/12/02 09:07:27;;;;;;;0.30;0.10;;;5.60;99.90;;;;;;5069947;28;20484;-89
2021/12/02 09:09:55;;;;;;;0.40;0.20;;;5.60;99.90;;;;;;5069574;28;20459;-89
2021/12/02 09:12:23;;;;;;;0.30;0.10;;;5.70;99.90;;;;;;5065779;28;20838;-87
2021/12/02 09:14:52;;;;;;;0.30;0.10;;;5.80;99.90;;;;;;5070704;28;20472;-87
2021/12/02 09:17:19;;;;;;;0.40;0.20;;;5.90;99.90;;;;;;5070901;28;20472;-88
2021/12/02 09:19:47;;;;;;;0.30;0.20;;;5.80;99.90;;;;;;5062067;28;20443;-87
2021/12/02 09:22:15;;;;;;;0.30;0.10;;;5.80;99.90;;;;;;5067357;28;20909;-87
2021/12/02 09:24:42;;;;;;;0.30;0.10;;;5.80;99.90;;;;;;5074819;28;20447;-87
2021/12/02 09:27:10;;;;;;;0.30;0.20;;;5.80;99.90;;;;;;5077479;28;20482;-87
2021/12/02 09:29:38;;;;;;;0.30;0.20;;;5.80;99.90;;;;;;5076284;28;20470;-87
2021/12/02 09:32:05;;;;;;;0.30;0.10;;;5.90;99.90;;;;;;5069114;28;20500;-86
2021/12/02 09:34:32;;;;;;;0.33;0.17;;;5.80;99.90;;;;;;5058885;28;20515;-92
2021/12/02 09:37:00;;;;;;;0.30;0.10;;;5.80;99.90;;;;;;5066784;28;20513;-87
2021/12/02 09:39:29;;;;;;;0.30;0.10;;;5.80;99.90;;;;;;5070302;28;21039;-87
2021/12/02 09:41:57;;;;;;;0.30;0.10;;;5.90;99.90;;;;;;5062532;28;20468;-88
2021/12/02 09:44:26;;;;;;;0.30;0.10;;;5.90;99.90;;;;;;5066292;28;20444;-88
2021/12/02 09:46:53;;;;;;;0.30;0.10;;;5.90;99.90;;;;;;5066476;28;20573;-87
2021/12/02 09:49:22;;;;;;;0.30;0.20;;;5.90;99.90;;;;;;5068373;28;20465;-87
2021/12/02 09:52:00;;;;;;;0.30;0.10;;;5.90;99.90;;;;;;5060514;28;20938;-88
2021/12/02 09:54:30;;;;;;;0.30;0.10;;;5.90;99.90;;;;;;5052308;28;20935;-87
2021/12/02 09:57:00;;;;;;;0.30;0.10;;;6.00;99.90;;;;;;5062665;28;20463;-87
2021/12/02 09:59:34;;;;;;;0.30;0.10;;;5.90;99.90;;;;;;5066629;28;20468;-87
2021/12/02 10:02:03;;;;;;;0.30;0.10;;;5.70;99.90;;;;;;5068841;28;20444;-87
2021/12/02 10:04:31;;;;;;;0.30;0.20;;;5.70;99.90;;;;;;5070368;28;21069;-87
2021/12/02 10:07:14;;;;;;;0.30;0.20;;;5.80;99.90;;;;;;5067967;28;20483;-87
2021/12/02 10:09:53;;;;;;;0.30;0.10;;;5.80;99.90;;;;;;5066543;28;20448;-88
2021/12/02 10:12:22;;;;;;;0.30;0.10;;;5.80;99.90;;;;;;5062250;28;20815;-88
2021/12/02 10:14:57;;;;;;;0.30;0.10;;;5.80;99.90;;;;;;5062427;28;20463;-88
2021/12/02 10:17:32;;;;;;;0.30;0.10;;;5.80;99.90;;;;;;5065338;28;20452;-88
2021/12/02 10:20:17;;;;;;;0.30;0.10;;;5.80;99.90;;;;;;5062452;28;20452;-89
2021/12/02 10:23:08;;;;;;;0.30;0.20;;;5.80;99.90;;;;;;5078412;28;20473;-89
2021/12/02 10:25:37;;;;;;;0.30;0.10;;;5.80;99.90;;;;;;5073786;28;21469;-89
2021/12/02 10:28:06;;;;;;;0.30;0.20;;;5.70;99.90;;;;;;5068027;28;20483;-88
2021/12/02 10:30:36;;;;;;;0.30;0.10;;;5.60;99.90;;;;;;5064396;28;20490;-89
2021/12/02 10:33:03;;;;;;;0.67;0.67;;;5.60;99.90;;;;;;5064315;28;20879;-88
2021/12/02 10:35:41;;;;;;;0.30;0.20;;;5.50;99.90;;;;;;5066089;28;20862;-89
2021/12/02 10:38:28;;;;;;;0.30;0.10;;;5.40;99.90;;;;;;5062564;28;21034;-91
2021/12/02 10:41:00;;;;;;;0.30;0.20;;;5.30;99.90;;;;;;5066133;28;20447;-90
2021/12/02 10:43:27;;;;;;;1.73;0.40;;;5.30;99.90;;;;;;5070426;28;20520;-91
2021/12/02 10:46:13;;;;;;;0.30;0.10;;;5.40;99.90;;;;;;5065438;28;20460;-88
2021/12/02 10:48:46;;;;;;;0.30;0.10;;;5.40;99.90;;;;;;5062158;28;21052;-90
2021/12/02 10:51:36;;;;;;;0.30;0.10;;;5.40;99.90;;;;;;5067760;28;20523;-90
2021/12/02 10:54:07;;;;;;;0.30;0.10;;;5.40;99.90;;;;;;5069621;28;20444;-88
2021/12/02 10:56:34;;;;;;;0.30;0.10;;;5.40;99.90;;;;;;5067338;28;20464;-87
2021/12/02 10:59:33;;;;;;;0.30;0.10;;;5.40;99.90;;;;;;5064549;28;20467;-87
2021/12/02 11:02:04;;;;;;;0.30;0.10;;;5.40;99.90;;;;;;5066401;28;20496;-86
2021/12/02 11:04:38;;;;;;;0.30;0.10;;;5.30;99.90;;;;;;5068971;28;21013;-86
2021/12/02 11:07:10;;;;;;;0.30;0.17;;;5.20;99.90;;;;;;5068609;28;20824;-87
2021/12/02 11:09:38;;;;;;;0.30;0.10;;;5.00;99.90;;;;;;5063903;28;20451;-88
2021/12/02 11:12:17;;;;;;;0.30;0.10;;;5.00;99.90;;;;;;5069429;28;20444;-87
2021/12/02 11:15:04;;;;;;;0.30;0.10;;;4.80;99.90;;;;;;5066739;28;20459;-87
2021/12/02 11:17:34;;;;;;;0.30;0.10;;;4.80;99.90;;;;;;5069664;28;20466;-89
2021/12/02 11:20:05;;;;;;;0.30;0.10;;;4.70;99.90;;;;;;5090033;28;20432;-88
2021/12/02 11:22:32;;;;;;;0.30;0.10;;;4.80;99.90;;;;;;5083694;28;20844;-87
2021/12/02 11:25:00;;;;;;;0.30;0.10;;;4.80;99.90;;;;;;5071856;28;20841;-89
2021/12/02 11:27:30;;;;;;;0.30;0.20;;;4.90;99.90;;;;;;5051542;28;20492;-88
2021/12/02 11:30:04;;;;;;;0.30;0.10;;;4.90;99.90;;;;;;5066108;28;20455;-89
2021/12/02 11:32:43;;;;;;;0.30;0.10;;;5.00;99.90;;;;;;5069915;28;20938;-88
2021/12/02 11:35:13;;;;;;;0.30;0.10;;;5.00;99.90;;;;;;5069078;28;21042;-88
2021/12/02 11:37:43;;;;;;;0.30;0.10;;;5.00;99.90;;;;;;5069392;28;20443;-90
2021/12/02 11:40:13;;;;;;;0.30;0.10;;;5.00;99.90;;;;;;5070103;28;20785;-87
2021/12/02 11:42:40;;;;;;;0.30;0.10;;;5.10;99.90;;;;;;5064517;28;20934;-88
2021/12/02 11:45:10;;;;;;;0.30;0.10;;;5.10;99.90;;;;;;5069675;28;20498;-88
2021/12/02 11:47:39;;;;;;;0.30;0.10;;;5.10;99.90;;;;;;5068381;28;20478;-87
2021/12/02 11:50:08;;;;;;;0.40;0.30;;;5.20;99.90;;;;;;5056111;28;20535;-88
2021/12/02 11:52:37;;;;;;;0.30;0.10;;;5.30;99.90;;;;;;5065832;28;20471;-90
2021/12/02 11:55:06;;;;;;;0.30;0.10;;;5.30;99.90;;;;;;5067953;28;20978;-85
2021/12/02 11:57:34;;;;;;;0.30;0.10;;;5.40;99.90;;;;;;5066285;28;20554;-88
2021/12/02 12:00:02;;;;;;;0.30;0.10;;;5.40;99.90;;;;;;5069246;28;20451;-88
2021/12/02 12:02:29;;;;;;;0.30;0.10;;;5.50;99.90;;;;;;5065933;28;20535;-91
2021/12/02 12:05:01;;;;;;;0.73;0.37;;;5.50;99.90;;;;;;5069070;28;20514;-88
2021/12/02 12:07:40;;;;;;;0.30;0.10;;;5.50;99.90;;;;;;5065521;28;20475;-88
2021/12/02 12:10:35;;;;;;;0.30;0.10;;;5.40;99.90;;;;;;5055147;28;20507;-87
2021/12/02 12:13:21;;;;;;;0.30;0.10;;;5.40;99.90;;;;;;5036368;28;20449;-87
2021/12/02 12:15:52;;;;;;;0.30;0.10;;;5.40;99.90;;;;;;5055282;28;20494;-88
2021/12/02 12:18:36;;;;;;;0.40;0.30;;;5.40;99.90;;;;;;5065834;28;20626;-88
2021/12/02 12:21:10;;;;;;;0.30;0.10;;;5.40;99.90;;;;;;5060356;28;20453;-87
2021/12/02 12:23:43;;;;;;;0.30;0.10;;;5.50;99.90;;;;;;5069197;28;20520;-89
2021/12/02 12:26:19;;;;;;;0.30;0.20;;;5.50;99.90;;;;;;5066416;28;21046;-89
2021/12/02 12:29:29;;;;;;;0.30;0.20;;;5.50;99.90;;;;;;5053754;28;20506;-87
2021/12/02 12:35:30;;;;;;;0.30;0.20;;;5.70;99.90;;;;;;5059617;28;20448;-89
2021/12/02 12:38:06;;;;;;;0.30;0.20;;;5.80;99.90;;;;;;5060864;28;20448;-88
2021/12/02 12:40:44;;;;;;;0.30;0.20;;;5.90;99.90;;;;;;5066956;28;20573;-88
2021/12/02 12:43:26;;;;;;;0.30;0.20;;;5.80;99.90;;;;;;5070333;28;20505;-88
2021/12/02 12:46:16;;;;;;;0.30;0.10;;;5.80;99.90;;;;;;5068545;28;20467;-87
2021/12/02 12:48:44;;;;;;;0.30;0.10;;;5.80;99.90;;;;;;5066485;28;20554;-87
2021/12/02 12:51:21;;;;;;;0.30;0.10;;;5.90;99.90;;;;;;5072639;28;20444;-87
2021/12/02 12:53:50;;;;;;;0.30;0.13;;;6.00;99.90;;;;;;5069701;28;20963;-87
2021/12/02 12:56:19;;;;;;;0.30;0.20;;;6.00;99.90;;;;;;5072432;28;20521;-88
2021/12/02 12:59:01;;;;;;;0.30;0.10;;;5.90;99.90;;;;;;5067755;28;20475;-86
2021/12/02 13:01:29;;;;;;;0.73;0.73;;;6.00;99.90;;;;;;5060204;28;20452;-89
2021/12/02 13:04:12;;;;;;;0.30;0.10;;;6.00;99.90;;;;;;5064280;28;20551;-89
2021/12/02 13:07:10;;;;;;;0.30;0.10;;;6.00;99.90;;;;;;5070517;28;20500;-89
2021/12/02 13:09:55;;;;;;;0.30;0.10;;;5.90;99.90;;;;;;5070977;28;20451;-87
2021/12/02 13:12:48;;;;;;;0.30;0.20;;;5.90;99.90;;;;;;5069259;28;20466;-89
2021/12/02 13:15:19;;;;;;;0.30;0.20;;;5.80;99.90;;;;;;5085693;28;20433;-87
2021/12/02 13:17:48;;;;;;;0.30;0.20;;;5.80;99.90;;;;;;5077991;28;20533;-87
2021/12/02 13:20:32;;;;;;;0.30;0.10;;;5.80;99.90;;;;;;5072813;28;20519;-88